sensor_id;sensor_type;location;lat;lon;timestamp;temperature;humidity
42965;DHT22;28604;51.204;22.552;2023-07-29T00:00:57;17.80;93.70
42965;DHT22;28604;51.204;22.552;2023-07-29T00:03:27;17.80;93.60
42965;DHT22;28604;51.204;22.552;2023-07-29T00:05:53;17.80;93.60
42965;DHT22;28604;51.204;22.552;2023-07-29T00:08:19;17.80;93.60
42965;DHT22;28604;51.204;22.552;2023-07-29T00:10:45;17.70;93.50
42965;DHT22;28604;51.204;22.552;2023-07-29T00:13:11;17.70;93.60
42965;DHT22;28604;51.204;22.552;2023-07-29T00:15:37;17.70;93.70
42965;DHT22;28604;51.204;22.552;2023-07-29T00:18:03;17.70;93.70
42965;DHT22;28604;51.204;22.552;2023-07-29T00:20:29;17.60;93.70
42965;DHT22;28604;51.204;22.552;2023-07-29T00:22:55;17.70;93.70
42965;DHT22;28604;51.204;22.552;2023-07-29T00:25:21;17.60;93.60
42965;DHT22;28604;51.204;22.552;2023-07-29T00:27:47;17.60;93.60
42965;DHT22;28604;51.204;22.552;2023-07-29T00:30:13;17.60;93.70
42965;DHT22;28604;51.204;22.552;2023-07-29T00:32:39;17.60;93.70
42965;DHT22;28604;51.204;22.552;2023-07-29T00:35:06;17.60;93.60
42965;DHT22;28604;51.204;22.552;2023-07-29T00:37:32;17.60;93.70
42965;DHT22;28604;51.204;22.552;2023-07-29T00:39:58;17.60;93.70
42965;DHT22;28604;51.204;22.552;2023-07-29T00:42:24;17.60;93.60
42965;DHT22;28604;51.204;22.552;2023-07-29T00:44:50;17.60;93.60
42965;DHT22;28604;51.204;22.552;2023-07-29T00:47:16;17.50;93.60
42965;DHT22;28604;51.204;22.552;2023-07-29T00:49:43;17.50;93.60
42965;DHT22;28604;51.204;22.552;2023-07-29T00:52:10;17.50;93.60
42965;DHT22;28604;51.204;22.552;2023-07-29T00:54:41;17.50;93.60
42965;DHT22;28604;51.204;22.552;2023-07-29T00:57:13;17.50;93.60
42965;DHT22;28604;51.204;22.552;2023-07-29T00:59:39;17.40;93.60
42965;DHT22;28604;51.204;22.552;2023-07-29T01:02:06;17.40;93.70
42965;DHT22;28604;51.204;22.552;2023-07-29T01:04:32;17.40;93.60
42965;DHT22;28604;51.204;22.552;2023-07-29T01:15:38;17.40;93.60
42965;DHT22;28604;51.204;22.552;2023-07-29T01:18:09;17.30;93.70
42965;DHT22;28604;51.204;22.552;2023-07-29T01:20:41;17.30;93.70
42965;DHT22;28604;51.204;22.552;2023-07-29T01:23:09;17.40;93.80
42965;DHT22;28604;51.204;22.552;2023-07-29T01:25:35;17.30;93.90
42965;DHT22;28604;51.204;22.552;2023-07-29T01:28:01;17.30;93.80
42965;DHT22;28604;51.204;22.552;2023-07-29T01:30:38;17.30;93.80
42965;DHT22;28604;51.204;22.552;2023-07-29T01:33:09;17.30;93.80
42965;DHT22;28604;51.204;22.552;2023-07-29T01:35:42;17.30;93.80
42965;DHT22;28604;51.204;22.552;2023-07-29T01:38:14;17.30;93.90
42965;DHT22;28604;51.204;22.552;2023-07-29T01:40:43;17.20;93.80
42965;DHT22;28604;51.204;22.552;2023-07-29T01:43:10;17.20;93.70
42965;DHT22;28604;51.204;22.552;2023-07-29T01:45:36;17.20;93.70
42965;DHT22;28604;51.204;22.552;2023-07-29T01:48:05;17.20;93.70
42965;DHT22;28604;51.204;22.552;2023-07-29T01:50:31;17.20;93.70
42965;DHT22;28604;51.204;22.552;2023-07-29T01:52:58;17.20;93.70
42965;DHT22;28604;51.204;22.552;2023-07-29T01:55:24;17.20;93.70
42965;DHT22;28604;51.204;22.552;2023-07-29T01:57:51;17.20;93.70
42965;DHT22;28604;51.204;22.552;2023-07-29T02:00:21;17.20;93.70
42965;DHT22;28604;51.204;22.552;2023-07-29T02:02:46;17.20;93.60
42965;DHT22;28604;51.204;22.552;2023-07-29T02:05:13;17.10;93.60
42965;DHT22;28604;51.204;22.552;2023-07-29T02:07:39;17.20;93.70
42965;DHT22;28604;51.204;22.552;2023-07-29T02:10:05;17.10;93.70
42965;DHT22;28604;51.204;22.552;2023-07-29T02:12:31;17.10;93.70
42965;DHT22;28604;51.204;22.552;2023-07-29T02:14:57;17.10;93.70
42965;DHT22;28604;51.204;22.552;2023-07-29T02:17:23;17.10;93.80
42965;DHT22;28604;51.204;22.552;2023-07-29T02:19:49;17.10;93.70
42965;DHT22;28604;51.204;22.552;2023-07-29T02:22:17;17.10;93.60
42965;DHT22;28604;51.204;22.552;2023-07-29T02:24:44;17.20;93.60
42965;DHT22;28604;51.204;22.552;2023-07-29T02:27:11;17.10;93.60
42965;DHT22;28604;51.204;22.552;2023-07-29T02:29:37;17.10;93.70
42965;DHT22;28604;51.204;22.552;2023-07-29T02:32:03;17.10;93.80
42965;DHT22;28604;51.204;22.552;2023-07-29T02:34:30;17.20;93.80
42965;DHT22;28604;51.204;22.552;2023-07-29T02:36:56;17.20;93.80
42965;DHT22;28604;51.204;22.552;2023-07-29T02:39:22;17.20;93.80
42965;DHT22;28604;51.204;22.552;2023-07-29T02:41:49;17.20;93.80
42965;DHT22;28604;51.204;22.552;2023-07-29T02:44:15;17.20;93.80
42965;DHT22;28604;51.204;22.552;2023-07-29T02:46:41;17.20;93.80
42965;DHT22;28604;51.204;22.552;2023-07-29T02:49:07;17.20;93.70
42965;DHT22;28604;51.204;22.552;2023-07-29T02:51:33;17.20;93.80
42965;DHT22;28604;51.204;22.552;2023-07-29T02:53:59;17.20;93.80
42965;DHT22;28604;51.204;22.552;2023-07-29T02:56:25;17.20;93.80
42965;DHT22;28604;51.204;22.552;2023-07-29T02:58:51;17.20;93.80
42965;DHT22;28604;51.204;22.552;2023-07-29T03:01:17;17.20;93.80
42965;DHT22;28604;51.204;22.552;2023-07-29T03:03:43;17.20;93.80
42965;DHT22;28604;51.204;22.552;2023-07-29T03:06:12;17.20;93.90
42965;DHT22;28604;51.204;22.552;2023-07-29T03:08:39;17.20;93.90
42965;DHT22;28604;51.204;22.552;2023-07-29T03:11:10;17.20;94.10
42965;DHT22;28604;51.204;22.552;2023-07-29T03:13:36;17.20;94.30
42965;DHT22;28604;51.204;22.552;2023-07-29T03:16:11;17.20;94.30
42965;DHT22;28604;51.204;22.552;2023-07-29T03:18:39;17.20;94.20
42965;DHT22;28604;51.204;22.552;2023-07-29T03:21:05;17.20;94.10
42965;DHT22;28604;51.204;22.552;2023-07-29T03:23:31;17.30;94.10
42965;DHT22;28604;51.204;22.552;2023-07-29T03:25:59;17.20;94.10
42965;DHT22;28604;51.204;22.552;2023-07-29T03:28:26;17.30;94.00
42965;DHT22;28604;51.204;22.552;2023-07-29T03:30:56;17.30;94.00
42965;DHT22;28604;51.204;22.552;2023-07-29T03:33:22;17.40;94.00
42965;DHT22;28604;51.204;22.552;2023-07-29T03:35:48;17.30;94.00
42965;DHT22;28604;51.204;22.552;2023-07-29T03:38:15;17.40;94.00
42965;DHT22;28604;51.204;22.552;2023-07-29T03:40:41;17.40;94.00
42965;DHT22;28604;51.204;22.552;2023-07-29T03:43:08;17.40;94.20
42965;DHT22;28604;51.204;22.552;2023-07-29T03:45:35;17.40;94.20
42965;DHT22;28604;51.204;22.552;2023-07-29T03:48:02;17.50;94.20
42965;DHT22;28604;51.204;22.552;2023-07-29T03:50:29;17.40;94.10
42965;DHT22;28604;51.204;22.552;2023-07-29T03:52:56;17.40;94.00
42965;DHT22;28604;51.204;22.552;2023-07-29T03:55:22;17.60;94.10
42965;DHT22;28604;51.204;22.552;2023-07-29T03:57:48;17.50;94.00
42965;DHT22;28604;51.204;22.552;2023-07-29T04:00:14;17.50;93.90
42965;DHT22;28604;51.204;22.552;2023-07-29T04:02:42;17.60;93.90
42965;DHT22;28604;51.204;22.552;2023-07-29T04:05:11;17.60;93.90
42965;DHT22;28604;51.204;22.552;2023-07-29T04:07:37;17.60;93.90
42965;DHT22;28604;51.204;22.552;2023-07-29T04:10:03;17.60;93.80
42965;DHT22;28604;51.204;22.552;2023-07-29T04:12:30;17.60;93.80
42965;DHT22;28604;51.204;22.552;2023-07-29T04:14:56;17.60;93.80
42965;DHT22;28604;51.204;22.552;2023-07-29T04:17:22;17.70;93.80
42965;DHT22;28604;51.204;22.552;2023-07-29T04:19:48;17.70;93.80
42965;DHT22;28604;51.204;22.552;2023-07-29T04:22:16;17.70;93.90
42965;DHT22;28604;51.204;22.552;2023-07-29T04:24:42;17.70;93.90
42965;DHT22;28604;51.204;22.552;2023-07-29T04:27:08;17.70;93.90
42965;DHT22;28604;51.204;22.552;2023-07-29T04:29:34;17.70;94.00
42965;DHT22;28604;51.204;22.552;2023-07-29T04:32:05;17.70;94.10
42965;DHT22;28604;51.204;22.552;2023-07-29T04:34:31;17.70;94.10
42965;DHT22;28604;51.204;22.552;2023-07-29T04:36:58;17.80;94.00
42965;DHT22;28604;51.204;22.552;2023-07-29T04:39:24;17.80;93.90
42965;DHT22;28604;51.204;22.552;2023-07-29T04:41:50;17.90;93.90
42965;DHT22;28604;51.204;22.552;2023-07-29T04:44:16;17.90;93.90
42965;DHT22;28604;51.204;22.552;2023-07-29T04:46:42;18.00;93.90
42965;DHT22;28604;51.204;22.552;2023-07-29T04:49:08;17.90;94.00
42965;DHT22;28604;51.204;22.552;2023-07-29T04:51:34;18.00;94.00
42965;DHT22;28604;51.204;22.552;2023-07-29T04:54:00;18.00;94.00
42965;DHT22;28604;51.204;22.552;2023-07-29T04:56:26;18.10;94.10
42965;DHT22;28604;51.204;22.552;2023-07-29T04:58:52;18.10;94.10
42965;DHT22;28604;51.204;22.552;2023-07-29T05:01:19;18.20;94.20
42965;DHT22;28604;51.204;22.552;2023-07-29T05:03:44;18.20;94.40
42965;DHT22;28604;51.204;22.552;2023-07-29T05:06:12;18.20;94.20
42965;DHT22;28604;51.204;22.552;2023-07-29T05:08:38;18.30;94.10
42965;DHT22;28604;51.204;22.552;2023-07-29T05:11:04;18.30;94.10
42965;DHT22;28604;51.204;22.552;2023-07-29T05:13:30;18.30;94.10
42965;DHT22;28604;51.204;22.552;2023-07-29T05:15:56;18.40;94.10
42965;DHT22;28604;51.204;22.552;2023-07-29T05:18:22;18.40;94.10
42965;DHT22;28604;51.204;22.552;2023-07-29T05:20:49;18.50;94.20
42965;DHT22;28604;51.204;22.552;2023-07-29T05:23:15;18.50;94.10
42965;DHT22;28604;51.204;22.552;2023-07-29T05:25:42;18.60;94.10
42965;DHT22;28604;51.204;22.552;2023-07-29T05:28:08;18.60;94.10
42965;DHT22;28604;51.204;22.552;2023-07-29T05:30:34;18.70;94.20
42965;DHT22;28604;51.204;22.552;2023-07-29T05:33:03;18.80;94.40
42965;DHT22;28604;51.204;22.552;2023-07-29T05:35:39;18.90;94.50
42965;DHT22;28604;51.204;22.552;2023-07-29T05:38:06;19.00;94.20
42965;DHT22;28604;51.204;22.552;2023-07-29T05:40:34;19.10;94.30
42965;DHT22;28604;51.204;22.552;2023-07-29T05:43:00;19.10;94.20
42965;DHT22;28604;51.204;22.552;2023-07-29T05:45:26;19.20;94.20
42965;DHT22;28604;51.204;22.552;2023-07-29T05:47:52;19.30;93.90
42965;DHT22;28604;51.204;22.552;2023-07-29T05:50:18;19.40;93.90
42965;DHT22;28604;51.204;22.552;2023-07-29T05:52:44;19.50;93.80
42965;DHT22;28604;51.204;22.552;2023-07-29T05:55:10;19.40;93.40
42965;DHT22;28604;51.204;22.552;2023-07-29T05:57:36;19.50;93.40
42965;DHT22;28604;51.204;22.552;2023-07-29T06:00:02;19.50;93.40
42965;DHT22;28604;51.204;22.552;2023-07-29T06:02:38;19.60;93.30
42965;DHT22;28604;51.204;22.552;2023-07-29T06:05:07;19.60;93.20
42965;DHT22;28604;51.204;22.552;2023-07-29T06:07:33;19.60;93.10
42965;DHT22;28604;51.204;22.552;2023-07-29T06:10:00;19.70;93.30
42965;DHT22;28604;51.204;22.552;2023-07-29T06:12:26;19.80;93.10
42965;DHT22;28604;51.204;22.552;2023-07-29T06:14:52;19.90;92.60
42965;DHT22;28604;51.204;22.552;2023-07-29T06:17:18;20.00;92.60
42965;DHT22;28604;51.204;22.552;2023-07-29T06:19:44;20.00;92.60
42965;DHT22;28604;51.204;22.552;2023-07-29T06:22:10;20.10;92.50
42965;DHT22;28604;51.204;22.552;2023-07-29T06:24:36;20.20;92.40
42965;DHT22;28604;51.204;22.552;2023-07-29T06:27:02;20.20;92.00
42965;DHT22;28604;51.204;22.552;2023-07-29T06:29:28;20.20;91.90
42965;DHT22;28604;51.204;22.552;2023-07-29T06:31:54;20.30;91.90
42965;DHT22;28604;51.204;22.552;2023-07-29T06:34:21;20.30;91.70
42965;DHT22;28604;51.204;22.552;2023-07-29T06:36:47;20.30;91.80
42965;DHT22;28604;51.204;22.552;2023-07-29T06:39:13;20.30;91.90
42965;DHT22;28604;51.204;22.552;2023-07-29T06:41:39;20.30;91.60
42965;DHT22;28604;51.204;22.552;2023-07-29T06:44:05;20.40;91.50
42965;DHT22;28604;51.204;22.552;2023-07-29T06:46:31;20.40;91.60
42965;DHT22;28604;51.204;22.552;2023-07-29T06:48:57;20.40;91.80
42965;DHT22;28604;51.204;22.552;2023-07-29T06:51:23;20.40;91.60
42965;DHT22;28604;51.204;22.552;2023-07-29T06:53:49;20.40;91.50
42965;DHT22;28604;51.204;22.552;2023-07-29T06:56:15;20.40;91.50
42965;DHT22;28604;51.204;22.552;2023-07-29T06:58:41;20.40;91.50
42965;DHT22;28604;51.204;22.552;2023-07-29T07:01:07;20.50;91.80
42965;DHT22;28604;51.204;22.552;2023-07-29T07:03:33;20.50;91.50
42965;DHT22;28604;51.204;22.552;2023-07-29T07:05:59;20.50;91.30
42965;DHT22;28604;51.204;22.552;2023-07-29T07:08:25;20.50;91.30
42965;DHT22;28604;51.204;22.552;2023-07-29T07:10:51;20.50;91.40
42965;DHT22;28604;51.204;22.552;2023-07-29T07:13:17;20.60;91.40
42965;DHT22;28604;51.204;22.552;2023-07-29T07:15:42;20.60;91.20
42965;DHT22;28604;51.204;22.552;2023-07-29T07:18:08;20.80;91.10
42965;DHT22;28604;51.204;22.552;2023-07-29T07:20:35;20.80;91.10
42965;DHT22;28604;51.204;22.552;2023-07-29T07:23:01;20.90;91.20
42965;DHT22;28604;51.204;22.552;2023-07-29T07:25:27;21.20;91.10
42965;DHT22;28604;51.204;22.552;2023-07-29T07:27:53;21.50;90.40
42965;DHT22;28604;51.204;22.552;2023-07-29T07:30:18;21.70;89.50
42965;DHT22;28604;51.204;22.552;2023-07-29T07:32:44;21.80;88.50
42965;DHT22;28604;51.204;22.552;2023-07-29T07:35:10;22.00;88.80
42965;DHT22;28604;51.204;22.552;2023-07-29T07:37:36;22.30;87.90
42965;DHT22;28604;51.204;22.552;2023-07-29T07:40:02;22.70;87.40
42965;DHT22;28604;51.204;22.552;2023-07-29T07:42:29;23.30;86.60
42965;DHT22;28604;51.204;22.552;2023-07-29T07:44:55;24.10;82.80
42965;DHT22;28604;51.204;22.552;2023-07-29T07:47:21;24.80;82.00
42965;DHT22;28604;51.204;22.552;2023-07-29T07:49:46;25.30;77.90
42965;DHT22;28604;51.204;22.552;2023-07-29T07:52:15;25.50;77.10
42965;DHT22;28604;51.204;22.552;2023-07-29T07:54:40;25.50;76.90
42965;DHT22;28604;51.204;22.552;2023-07-29T07:57:06;25.50;76.90
42965;DHT22;28604;51.204;22.552;2023-07-29T07:59:32;25.60;77.40
42965;DHT22;28604;51.204;22.552;2023-07-29T08:01:58;25.70;78.20
42965;DHT22;28604;51.204;22.552;2023-07-29T08:04:24;26.00;76.50
42965;DHT22;28604;51.204;22.552;2023-07-29T08:06:50;26.00;74.40
42965;DHT22;28604;51.204;22.552;2023-07-29T08:09:16;26.00;74.60
42965;DHT22;28604;51.204;22.552;2023-07-29T08:11:42;25.90;73.90
42965;DHT22;28604;51.204;22.552;2023-07-29T08:14:08;26.00;75.10
42965;DHT22;28604;51.204;22.552;2023-07-29T08:16:34;26.20;75.00
42965;DHT22;28604;51.204;22.552;2023-07-29T08:18:59;26.60;74.50
42965;DHT22;28604;51.204;22.552;2023-07-29T08:21:27;27.00;73.00
42965;DHT22;28604;51.204;22.552;2023-07-29T08:23:52;27.30;70.70
42965;DHT22;28604;51.204;22.552;2023-07-29T08:26:18;27.20;70.80
42965;DHT22;28604;51.204;22.552;2023-07-29T08:28:44;27.30;71.40
42965;DHT22;28604;51.204;22.552;2023-07-29T08:31:10;27.40;71.60
42965;DHT22;28604;51.204;22.552;2023-07-29T08:33:36;27.80;70.30
42965;DHT22;28604;51.204;22.552;2023-07-29T08:36:03;28.40;69.80
42965;DHT22;28604;51.204;22.552;2023-07-29T08:38:29;28.90;69.30
42965;DHT22;28604;51.204;22.552;2023-07-29T08:43:44;29.10;66.60
42965;DHT22;28604;51.204;22.552;2023-07-29T08:46:16;28.80;66.90
42965;DHT22;28604;51.204;22.552;2023-07-29T08:48:43;28.50;67.30
42965;DHT22;28604;51.204;22.552;2023-07-29T08:51:10;28.60;66.50
42965;DHT22;28604;51.204;22.552;2023-07-29T08:53:37;28.70;67.50
42965;DHT22;28604;51.204;22.552;2023-07-29T08:56:04;28.70;66.90
42965;DHT22;28604;51.204;22.552;2023-07-29T08:58:31;28.70;67.20
42965;DHT22;28604;51.204;22.552;2023-07-29T09:00:59;28.80;65.80
42965;DHT22;28604;51.204;22.552;2023-07-29T09:03:25;28.70;65.00
42965;DHT22;28604;51.204;22.552;2023-07-29T09:05:53;28.80;65.20
42965;DHT22;28604;51.204;22.552;2023-07-29T09:08:20;28.70;66.40
42965;DHT22;28604;51.204;22.552;2023-07-29T09:10:47;28.70;66.00
42965;DHT22;28604;51.204;22.552;2023-07-29T09:13:13;28.90;65.10
42965;DHT22;28604;51.204;22.552;2023-07-29T09:15:39;29.30;64.50
42965;DHT22;28604;51.204;22.552;2023-07-29T09:18:11;29.80;63.50
42965;DHT22;28604;51.204;22.552;2023-07-29T09:20:38;30.30;63.80
42965;DHT22;28604;51.204;22.552;2023-07-29T09:23:07;30.70;63.80
42965;DHT22;28604;51.204;22.552;2023-07-29T09:25:33;31.00;60.40
42965;DHT22;28604;51.204;22.552;2023-07-29T09:28:00;31.20;60.70
42965;DHT22;28604;51.204;22.552;2023-07-29T09:30:27;31.60;61.00
42965;DHT22;28604;51.204;22.552;2023-07-29T09:32:56;31.90;60.30
42965;DHT22;28604;51.204;22.552;2023-07-29T09:35:23;32.20;58.50
42965;DHT22;28604;51.204;22.552;2023-07-29T09:37:50;32.60;57.80
42965;DHT22;28604;51.204;22.552;2023-07-29T09:40:17;32.90;58.40
42965;DHT22;28604;51.204;22.552;2023-07-29T09:42:54;33.00;57.20
42965;DHT22;28604;51.204;22.552;2023-07-29T09:45:25;32.90;56.50
42965;DHT22;28604;51.204;22.552;2023-07-29T09:47:55;32.70;56.70
42965;DHT22;28604;51.204;22.552;2023-07-29T09:50:26;32.70;57.30
42965;DHT22;28604;51.204;22.552;2023-07-29T09:52:53;32.90;55.70
42965;DHT22;28604;51.204;22.552;2023-07-29T09:55:23;33.30;56.50
42965;DHT22;28604;51.204;22.552;2023-07-29T09:57:56;33.60;54.40
42965;DHT22;28604;51.204;22.552;2023-07-29T10:00:23;33.90;54.90
42965;DHT22;28604;51.204;22.552;2023-07-29T10:02:49;34.20;54.20
42965;DHT22;28604;51.204;22.552;2023-07-29T10:05:16;34.50;52.70
42965;DHT22;28604;51.204;22.552;2023-07-29T10:07:42;34.50;53.20
42965;DHT22;28604;51.204;22.552;2023-07-29T10:10:09;34.30;52.30
42965;DHT22;28604;51.204;22.552;2023-07-29T10:12:35;34.30;53.20
42965;DHT22;28604;51.204;22.552;2023-07-29T10:15:05;34.10;54.40
42965;DHT22;28604;51.204;22.552;2023-07-29T10:17:36;34.30;54.10
42965;DHT22;28604;51.204;22.552;2023-07-29T10:20:14;34.30;53.80
42965;DHT22;28604;51.204;22.552;2023-07-29T10:22:42;34.50;53.20
42965;DHT22;28604;51.204;22.552;2023-07-29T10:25:17;34.90;51.90
42965;DHT22;28604;51.204;22.552;2023-07-29T10:27:47;34.90;52.10
42965;DHT22;28604;51.204;22.552;2023-07-29T10:30:15;34.80;52.60
42965;DHT22;28604;51.204;22.552;2023-07-29T10:32:43;34.60;52.90
42965;DHT22;28604;51.204;22.552;2023-07-29T10:35:11;34.10;52.80
42965;DHT22;28604;51.204;22.552;2023-07-29T10:37:38;33.70;53.60
42965;DHT22;28604;51.204;22.552;2023-07-29T10:40:10;33.40;53.40
42965;DHT22;28604;51.204;22.552;2023-07-29T10:42:41;33.10;55.10
42965;DHT22;28604;51.204;22.552;2023-07-29T10:45:23;33.20;54.50
42965;DHT22;28604;51.204;22.552;2023-07-29T10:47:49;33.50;54.80
42965;DHT22;28604;51.204;22.552;2023-07-29T10:50:20;33.70;55.20
42965;DHT22;28604;51.204;22.552;2023-07-29T10:52:52;33.90;53.20
42965;DHT22;28604;51.204;22.552;2023-07-29T10:55:35;34.10;53.20
42965;DHT22;28604;51.204;22.552;2023-07-29T10:58:15;34.20;52.50
42965;DHT22;28604;51.204;22.552;2023-07-29T11:00:43;33.90;52.80
42965;DHT22;28604;51.204;22.552;2023-07-29T11:03:12;33.70;53.90
42965;DHT22;28604;51.204;22.552;2023-07-29T11:05:49;33.40;53.90
42965;DHT22;28604;51.204;22.552;2023-07-29T11:08:23;33.20;54.40
42965;DHT22;28604;51.204;22.552;2023-07-29T11:11:01;33.20;54.20
42965;DHT22;28604;51.204;22.552;2023-07-29T11:13:29;33.20;55.30
42965;DHT22;28604;51.204;22.552;2023-07-29T11:15:55;33.30;55.40
42965;DHT22;28604;51.204;22.552;2023-07-29T11:18:33;33.40;54.30
42965;DHT22;28604;51.204;22.552;2023-07-29T11:21:00;33.50;53.90
42965;DHT22;28604;51.204;22.552;2023-07-29T11:23:34;33.30;54.00
42965;DHT22;28604;51.204;22.552;2023-07-29T11:26:02;33.40;53.70
42965;DHT22;28604;51.204;22.552;2023-07-29T11:28:28;33.30;55.20
42965;DHT22;28604;51.204;22.552;2023-07-29T11:30:58;33.30;54.50
42965;DHT22;28604;51.204;22.552;2023-07-29T11:33:27;33.30;54.40
42965;DHT22;28604;51.204;22.552;2023-07-29T11:35:54;33.30;54.40
42965;DHT22;28604;51.204;22.552;2023-07-29T11:38:21;33.40;53.60
42965;DHT22;28604;51.204;22.552;2023-07-29T11:52:18;33.20;53.60
42965;DHT22;28604;51.204;22.552;2023-07-29T11:54:47;33.00;53.90
42965;DHT22;28604;51.204;22.552;2023-07-29T11:57:13;33.00;53.60
42965;DHT22;28604;51.204;22.552;2023-07-29T11:59:41;33.00;54.00
42965;DHT22;28604;51.204;22.552;2023-07-29T12:02:16;32.90;54.70
42965;DHT22;28604;51.204;22.552;2023-07-29T12:04:44;32.90;54.20
42965;DHT22;28604;51.204;22.552;2023-07-29T12:07:13;32.90;54.50
42965;DHT22;28604;51.204;22.552;2023-07-29T12:09:40;33.00;54.80
42965;DHT22;28604;51.204;22.552;2023-07-29T12:12:07;33.00;54.50
42965;DHT22;28604;51.204;22.552;2023-07-29T12:14:34;33.10;53.80
42965;DHT22;28604;51.204;22.552;2023-07-29T12:17:04;33.00;53.80
42965;DHT22;28604;51.204;22.552;2023-07-29T12:19:36;33.00;54.00
42965;DHT22;28604;51.204;22.552;2023-07-29T12:22:03;33.00;54.30
42965;DHT22;28604;51.204;22.552;2023-07-29T12:24:30;32.90;54.40
42965;DHT22;28604;51.204;22.552;2023-07-29T12:26:57;32.80;54.00
42965;DHT22;28604;51.204;22.552;2023-07-29T12:29:23;32.70;54.20
42965;DHT22;28604;51.204;22.552;2023-07-29T12:32:00;32.70;55.10
42965;DHT22;28604;51.204;22.552;2023-07-29T12:34:28;32.70;55.50
42965;DHT22;28604;51.204;22.552;2023-07-29T12:36:55;32.70;55.50
42965;DHT22;28604;51.204;22.552;2023-07-29T12:39:24;32.70;55.40
42965;DHT22;28604;51.204;22.552;2023-07-29T12:41:51;32.90;54.80
42965;DHT22;28604;51.204;22.552;2023-07-29T12:44:18;33.00;54.80
42965;DHT22;28604;51.204;22.552;2023-07-29T12:46:44;33.00;54.10
42965;DHT22;28604;51.204;22.552;2023-07-29T12:49:10;33.00;54.40
42965;DHT22;28604;51.204;22.552;2023-07-29T12:51:36;32.90;54.00
42965;DHT22;28604;51.204;22.552;2023-07-29T12:54:04;32.80;54.30
42965;DHT22;28604;51.204;22.552;2023-07-29T12:56:32;32.80;55.20
42965;DHT22;28604;51.204;22.552;2023-07-29T12:58:59;32.90;54.60
42965;DHT22;28604;51.204;22.552;2023-07-29T13:01:25;32.90;54.80
42965;DHT22;28604;51.204;22.552;2023-07-29T13:03:52;32.90;55.40
42965;DHT22;28604;51.204;22.552;2023-07-29T13:06:18;32.90;53.70
42965;DHT22;28604;51.204;22.552;2023-07-29T13:08:44;32.90;53.90
42965;DHT22;28604;51.204;22.552;2023-07-29T13:11:10;32.90;54.80
42965;DHT22;28604;51.204;22.552;2023-07-29T13:13:37;32.80;55.50
42965;DHT22;28604;51.204;22.552;2023-07-29T13:16:03;32.80;55.70
42965;DHT22;28604;51.204;22.552;2023-07-29T13:18:29;32.80;55.70
42965;DHT22;28604;51.204;22.552;2023-07-29T13:20:55;32.70;56.90
42965;DHT22;28604;51.204;22.552;2023-07-29T13:23:21;32.70;55.90
42965;DHT22;28604;51.204;22.552;2023-07-29T13:25:47;32.60;55.60
42965;DHT22;28604;51.204;22.552;2023-07-29T13:28:13;32.60;55.70
42965;DHT22;28604;51.204;22.552;2023-07-29T13:30:40;32.60;56.70
42965;DHT22;28604;51.204;22.552;2023-07-29T13:33:06;32.50;56.20
42965;DHT22;28604;51.204;22.552;2023-07-29T13:35:33;32.50;55.50
42965;DHT22;28604;51.204;22.552;2023-07-29T13:37:59;32.50;56.10
42965;DHT22;28604;51.204;22.552;2023-07-29T13:40:25;32.50;56.20
42965;DHT22;28604;51.204;22.552;2023-07-29T13:42:51;32.60;55.60
42965;DHT22;28604;51.204;22.552;2023-07-29T13:45:18;32.60;55.60
42965;DHT22;28604;51.204;22.552;2023-07-29T13:47:44;32.40;56.00
42965;DHT22;28604;51.204;22.552;2023-07-29T13:50:10;32.40;56.40
42965;DHT22;28604;51.204;22.552;2023-07-29T13:52:38;32.30;56.00
42965;DHT22;28604;51.204;22.552;2023-07-29T13:55:05;32.30;56.20
42965;DHT22;28604;51.204;22.552;2023-07-29T13:57:32;32.30;56.40
42965;DHT22;28604;51.204;22.552;2023-07-29T13:59:58;32.30;56.40
42965;DHT22;28604;51.204;22.552;2023-07-29T14:02:24;32.20;55.70
42965;DHT22;28604;51.204;22.552;2023-07-29T14:04:52;32.00;55.50
42965;DHT22;28604;51.204;22.552;2023-07-29T14:07:18;31.80;56.60
42965;DHT22;28604;51.204;22.552;2023-07-29T14:09:44;31.80;57.20
42965;DHT22;28604;51.204;22.552;2023-07-29T14:12:10;31.80;57.80
42965;DHT22;28604;51.204;22.552;2023-07-29T14:14:40;31.80;56.90
42965;DHT22;28604;51.204;22.552;2023-07-29T14:17:07;31.90;57.40
42965;DHT22;28604;51.204;22.552;2023-07-29T14:19:34;31.80;56.80
42965;DHT22;28604;51.204;22.552;2023-07-29T14:22:00;31.80;57.00
42965;DHT22;28604;51.204;22.552;2023-07-29T14:24:26;31.80;57.10
42965;DHT22;28604;51.204;22.552;2023-07-29T14:26:52;31.70;57.00
42965;DHT22;28604;51.204;22.552;2023-07-29T14:29:18;31.70;57.10
42965;DHT22;28604;51.204;22.552;2023-07-29T14:31:44;31.70;57.00
42965;DHT22;28604;51.204;22.552;2023-07-29T14:34:10;31.60;57.40
42965;DHT22;28604;51.204;22.552;2023-07-29T14:36:36;31.60;57.40
42965;DHT22;28604;51.204;22.552;2023-07-29T14:39:02;31.40;57.50
42965;DHT22;28604;51.204;22.552;2023-07-29T14:41:29;31.40;56.90
42965;DHT22;28604;51.204;22.552;2023-07-29T14:43:55;31.30;57.60
42965;DHT22;28604;51.204;22.552;2023-07-29T14:46:21;31.20;57.90
42965;DHT22;28604;51.204;22.552;2023-07-29T14:48:47;31.00;56.80
42965;DHT22;28604;51.204;22.552;2023-07-29T14:51:13;30.90;57.90
42965;DHT22;28604;51.204;22.552;2023-07-29T14:53:39;30.80;58.00
42965;DHT22;28604;51.204;22.552;2023-07-29T14:56:05;30.60;58.90
42965;DHT22;28604;51.204;22.552;2023-07-29T14:58:31;30.50;58.70
42965;DHT22;28604;51.204;22.552;2023-07-29T15:00:57;30.50;59.10
42965;DHT22;28604;51.204;22.552;2023-07-29T15:03:24;30.40;58.70
42965;DHT22;28604;51.204;22.552;2023-07-29T15:05:50;30.40;58.10
42965;DHT22;28604;51.204;22.552;2023-07-29T15:08:16;30.30;58.90
42965;DHT22;28604;51.204;22.552;2023-07-29T15:10:47;30.20;58.80
42965;DHT22;28604;51.204;22.552;2023-07-29T15:13:14;30.10;60.00
42965;DHT22;28604;51.204;22.552;2023-07-29T15:15:43;30.00;59.20
42965;DHT22;28604;51.204;22.552;2023-07-29T15:20:39;29.70;58.80
42965;DHT22;28604;51.204;22.552;2023-07-29T15:23:05;29.70;59.80
42965;DHT22;28604;51.204;22.552;2023-07-29T15:25:31;29.60;59.60
42965;DHT22;28604;51.204;22.552;2023-07-29T15:27:57;29.60;60.10
42965;DHT22;28604;51.204;22.552;2023-07-29T15:30:24;29.60;60.00
42965;DHT22;28604;51.204;22.552;2023-07-29T15:32:49;29.60;60.70
42965;DHT22;28604;51.204;22.552;2023-07-29T15:35:15;29.60;61.00
42965;DHT22;28604;51.204;22.552;2023-07-29T15:37:41;29.60;60.40
42965;DHT22;28604;51.204;22.552;2023-07-29T15:40:08;29.60;60.10